createdAt,value
2022-12-19T00:00:43.767Z,63.38
2022-12-19T00:03:12.530Z,63.85
2022-12-19T00:05:40.144Z,64.43
2022-12-19T00:08:17.081Z,58.00
2022-12-19T00:10:44.726Z,59.72
2022-12-19T00:13:12.066Z,65.63
2022-12-19T00:15:40.559Z,58.42
2022-12-19T00:18:07.850Z,69.20
2022-12-19T00:20:36.563Z,58.30
2022-12-19T00:23:03.929Z,61.05
2022-12-19T00:25:31.220Z,54.80
2022-12-19T00:27:59.285Z,61.28
2022-12-19T00:30:26.876Z,65.38
2022-12-19T00:32:54.184Z,67.38
2022-12-19T00:35:21.472Z,59.95
2022-12-19T00:37:50.282Z,63.50
2022-12-19T00:40:17.816Z,60.47
2022-12-19T00:42:50.085Z,61.20
2022-12-19T00:45:20.573Z,54.47
2022-12-19T00:47:47.927Z,59.10
2022-12-19T00:50:15.487Z,59.88
2022-12-19T00:52:42.811Z,64.88
2022-12-19T00:55:16.439Z,65.72
2022-12-19T00:57:46.570Z,66.22
2022-12-19T01:00:14.576Z,63.33
2022-12-19T01:02:42.001Z,67.22
2022-12-19T01:05:09.775Z,60.50
2022-12-19T01:07:37.461Z,72.95
2022-12-19T01:10:05.508Z,68.20
2022-12-19T01:12:49.257Z,72.25
2022-12-19T01:15:17.575Z,58.40
2022-12-19T01:17:45.328Z,64.45
2022-12-19T01:20:13.137Z,68.03
2022-12-19T01:22:40.523Z,66.05
2022-12-19T01:25:08.242Z,65.18
2022-12-19T01:27:36.970Z,72.00
2022-12-19T01:30:04.934Z,53.33
2022-12-19T01:32:34.946Z,68.13
2022-12-19T01:35:02.245Z,71.40
2022-12-19T01:37:29.590Z,70.03
2022-12-19T01:39:56.931Z,41.40
2022-12-19T01:42:24.533Z,57.75
2022-12-19T01:45:06.747Z,61.42
2022-12-19T01:47:36.782Z,66.30
2022-12-19T01:50:04.636Z,68.85
2022-12-19T01:52:32.017Z,61.85
2022-12-19T01:54:59.436Z,60.90
2022-12-19T01:57:26.860Z,63.33
2022-12-19T01:59:56.467Z,55.10
2022-12-19T02:02:29.335Z,61.90
2022-12-19T02:04:56.793Z,63.33
2022-12-19T02:07:26.233Z,59.40
2022-12-19T02:09:56.985Z,53.75
2022-12-19T02:12:25.413Z,56.97
2022-12-19T02:14:53.236Z,56.78
2022-12-19T02:17:29.133Z,52.05
2022-12-19T02:20:26.254Z,63.78
2022-12-19T02:23:07.333Z,60.40
2022-12-19T02:25:49.425Z,48.53
2022-12-19T02:28:29.050Z,59.13
2022-12-19T02:31:05.729Z,51.92
2022-12-19T02:33:45.946Z,61.08
2022-12-19T02:36:16.902Z,54.33
2022-12-19T02:38:51.439Z,60.20
2022-12-19T02:43:48.667Z,57.55
2022-12-19T02:46:19.969Z,55.67
2022-12-19T02:48:47.877Z,55.00
2022-12-19T02:51:15.223Z,49.15
2022-12-19T02:53:43.194Z,52.95
2022-12-19T02:56:19.006Z,61.28
2022-12-19T02:58:52.832Z,56.78
2022-12-19T03:01:27.616Z,59.13
2022-12-19T03:04:00.858Z,52.55
2022-12-19T03:06:32.737Z,59.95
2022-12-19T03:09:03.075Z,52.17
2022-12-19T03:11:32.964Z,65.57
2022-12-19T03:14:02.979Z,60.03
2022-12-19T03:16:31.910Z,53.05
2022-12-19T03:18:59.364Z,55.75
2022-12-19T03:21:29.989Z,51.97
2022-12-19T03:23:58.262Z,56.38
2022-12-19T03:26:26.025Z,58.85
2022-12-19T03:28:55.238Z,61.47
2022-12-19T03:31:23.630Z,61.63
2022-12-19T03:33:55.524Z,59.03
2022-12-19T03:36:26.873Z,52.33
2022-12-19T03:38:54.887Z,61.67
2022-12-19T03:41:42.784Z,65.05
2022-12-19T03:44:10.318Z,55.28
2022-12-19T03:46:40.270Z,69.00
2022-12-19T03:49:09.166Z,49.83
2022-12-19T03:51:42.379Z,51.05
2022-12-19T03:54:11.920Z,61.22
2022-12-19T03:56:42.272Z,65.22
2022-12-19T03:59:12.126Z,62.42
2022-12-19T04:01:41.156Z,69.50
2022-12-19T04:04:13.154Z,71.80
2022-12-19T04:06:41.549Z,71.95
2022-12-19T04:09:09.389Z,80.18
2022-12-19T04:11:38.811Z,65.18
2022-12-19T04:14:08.299Z,82.45
2022-12-19T04:16:40.235Z,69.03
2022-12-19T04:19:10.066Z,67.32
2022-12-19T04:21:42.056Z,71.30
2022-12-19T04:24:12.376Z,61.03
2022-12-19T04:26:39.996Z,78.07
2022-12-19T04:29:08.094Z,69.45
2022-12-19T04:31:36.051Z,71.05
2022-12-19T04:34:03.517Z,75.65
2022-12-19T04:36:30.893Z,82.07
2022-12-19T04:38:59.579Z,84.20
2022-12-19T04:41:26.950Z,86.22
2022-12-19T04:43:54.225Z,82.70
2022-12-19T04:46:21.576Z,84.65
2022-12-19T04:48:48.981Z,81.57
2022-12-19T04:51:17.237Z,79.95
2022-12-19T04:53:44.982Z,98.38
2022-12-19T04:56:13.677Z,102.78
2022-12-19T04:58:41.053Z,79.47
2022-12-19T05:01:09.880Z,96.82
2022-12-19T05:03:37.709Z,97.57
2022-12-19T05:06:06.965Z,97.45
2022-12-19T05:08:37.363Z,99.93
2022-12-19T05:11:05.563Z,95.72
2022-12-19T05:13:34.440Z,105.97
2022-12-19T05:16:02.901Z,88.95
2022-12-19T05:18:30.812Z,85.15
2022-12-19T05:20:58.678Z,96.22
2022-12-19T05:23:26.126Z,86.38
2022-12-19T05:25:53.664Z,91.28
2022-12-19T05:28:21.064Z,86.57
2022-12-19T05:30:52.788Z,89.55
2022-12-19T05:33:20.218Z,79.78
2022-12-19T05:35:49.336Z,95.28
2022-12-19T05:38:16.674Z,72.55
2022-12-19T05:40:44.038Z,82.13
2022-12-19T05:43:11.425Z,76.78
2022-12-19T05:45:39.765Z,89.85
2022-12-19T05:48:08.901Z,88.50
2022-12-19T05:50:36.967Z,83.28
2022-12-19T05:53:04.359Z,89.40
2022-12-19T05:55:31.703Z,83.05
2022-12-19T05:57:59.008Z,80.85
2022-12-19T06:00:26.494Z,84.90
2022-12-19T06:02:54.653Z,72.40
2022-12-19T06:05:23.562Z,89.10
2022-12-19T06:07:51.029Z,87.55
2022-12-19T06:10:18.338Z,80.50
2022-12-19T06:12:45.705Z,79.72
2022-12-19T06:15:13.532Z,92.25
2022-12-19T06:17:40.825Z,80.47
2022-12-19T06:20:08.496Z,84.43
2022-12-19T06:22:37.525Z,74.00
2022-12-19T06:25:05.276Z,90.75
2022-12-19T06:27:32.619Z,79.13
2022-12-19T06:29:59.970Z,76.85
2022-12-19T06:32:27.362Z,78.53
2022-12-19T06:35:04.114Z,87.00
2022-12-19T06:37:32.016Z,90.70
2022-12-19T06:40:00.731Z,87.78
2022-12-19T06:42:27.114Z,95.50
2022-12-19T06:44:55.999Z,88.60
2022-12-19T06:47:24.235Z,85.18
2022-12-19T06:49:51.545Z,95.35
2022-12-19T06:52:18.967Z,91.38
2022-12-19T06:54:46.342Z,92.13
2022-12-19T06:57:14.988Z,92.95
2022-12-19T06:59:42.413Z,92.32
2022-12-19T07:02:14.776Z,89.50
2022-12-19T07:04:44.482Z,89.43
2022-12-19T07:07:11.781Z,68.55
2022-12-19T07:09:39.123Z,91.18
2022-12-19T07:12:06.599Z,99.20
2022-12-19T07:14:35.304Z,85.28
2022-12-19T07:17:03.496Z,73.15
2022-12-19T07:19:31.636Z,85.28
2022-12-19T07:22:00.182Z,80.07
2022-12-19T07:24:27.601Z,75.43
2022-12-19T07:26:54.951Z,71.80
2022-12-19T07:29:22.522Z,86.10
2022-12-19T07:31:51.221Z,80.88
2022-12-19T07:34:18.846Z,78.95
2022-12-19T07:36:46.158Z,72.18
2022-12-19T07:39:13.564Z,88.13
2022-12-19T07:41:40.909Z,86.88
2022-12-19T07:44:08.497Z,84.28
2022-12-19T07:46:35.809Z,75.35
2022-12-19T07:49:04.483Z,86.00
2022-12-19T07:51:31.796Z,87.97
2022-12-19T07:53:59.206Z,84.85
2022-12-19T07:56:27.338Z,85.72
2022-12-19T07:58:55.009Z,79.45
2022-12-19T08:01:22.652Z,81.80
2022-12-19T08:03:50.128Z,84.57
2022-12-19T08:06:18.788Z,90.22
2022-12-19T08:08:46.081Z,78.30
2022-12-19T08:11:14.160Z,80.30
2022-12-19T08:13:46.407Z,90.25
2022-12-19T08:16:14.265Z,85.43
2022-12-19T08:18:41.615Z,93.10
2022-12-19T08:21:09.335Z,82.18
2022-12-19T08:23:38.586Z,91.53
2022-12-19T08:26:07.006Z,88.90
2022-12-19T08:28:35.403Z,86.97
2022-12-19T08:31:06.619Z,92.18
2022-12-19T08:33:34.026Z,83.57
2022-12-19T08:36:04.418Z,90.65
2022-12-19T08:38:31.798Z,85.13
2022-12-19T08:41:00.431Z,90.55
2022-12-19T08:43:28.105Z,91.25
2022-12-19T08:45:55.742Z,68.93
2022-12-19T08:48:23.766Z,80.40
2022-12-19T08:50:51.697Z,85.88
2022-12-19T08:53:22.815Z,79.10
2022-12-19T08:55:55.308Z,81.32
2022-12-19T08:58:24.137Z,87.35
2022-12-19T09:00:57.528Z,83.20
2022-12-19T09:03:32.937Z,75.80
2022-12-19T09:06:18.611Z,92.43
2022-12-19T09:08:46.903Z,88.28
2022-12-19T09:11:15.404Z,86.75
2022-12-19T09:13:44.555Z,86.90
2022-12-19T09:16:12.872Z,98.07
2022-12-19T09:18:45.178Z,86.47
2022-12-19T09:21:15.491Z,74.82
2022-12-19T09:23:43.329Z,87.47
2022-12-19T09:26:13.609Z,90.38
2022-12-19T09:28:42.089Z,88.90
2022-12-19T09:31:12.570Z,86.25
2022-12-19T09:33:43.579Z,71.95
2022-12-19T09:36:13.225Z,84.97
2022-12-19T09:38:40.570Z,87.28
2022-12-19T09:41:15.373Z,78.60
2022-12-19T09:43:51.893Z,83.65
2022-12-19T09:46:21.121Z,78.20
2022-12-19T09:48:54.499Z,86.40
2022-12-19T09:51:29.001Z,77.65
2022-12-19T09:54:00.013Z,97.82
2022-12-19T09:56:29.436Z,68.47
2022-12-19T09:59:01.795Z,78.18
2022-12-19T10:01:33.546Z,80.90
2022-12-19T10:04:02.918Z,80.88
2022-12-19T10:07:21.141Z,82.85
2022-12-19T10:10:37.564Z,79.20
2022-12-19T10:12:47.892Z,80.40
2022-12-19T10:15:04.017Z,87.10
2022-12-19T10:17:37.780Z,78.05
2022-12-19T10:20:13.739Z,73.22
2022-12-19T10:22:44.645Z,88.82
2022-12-19T10:25:16.689Z,73.35
2022-12-19T10:27:59.351Z,72.43
2022-12-19T10:30:27.818Z,72.28
2022-12-19T10:33:03.808Z,72.50
2022-12-19T10:35:32.850Z,68.53
2022-12-19T10:38:08.427Z,68.72
2022-12-19T10:40:38.430Z,58.95
2022-12-19T10:43:17.065Z,63.63
2022-12-19T10:45:52.286Z,65.85
2022-12-19T10:48:22.517Z,64.05
2022-12-19T10:50:58.771Z,67.80
2022-12-19T10:53:34.024Z,61.75
2022-12-19T10:56:02.494Z,62.15
2022-12-19T10:58:33.705Z,73.45
2022-12-19T11:01:05.003Z,60.20
2022-12-19T11:03:34.534Z,70.45
2022-12-19T11:06:03.442Z,67.05
2022-12-19T11:08:31.711Z,66.38
2022-12-19T11:13:10.937Z,69.82
2022-12-19T11:18:45.644Z,55.50
2022-12-19T11:22:19.873Z,62.75
2022-12-19T11:29:18.922Z,54.97
2022-12-19T11:29:25.824Z,53.30
2022-12-19T11:29:54.949Z,58.00
2022-12-19T11:30:36.186Z,50.25
2022-12-19T11:33:45.816Z,56.33
2022-12-19T11:36:27.333Z,48.40
2022-12-19T11:38:55.025Z,54.95
2022-12-19T11:41:30.386Z,55.08
2022-12-19T11:44:01.921Z,51.30
2022-12-19T11:46:34.072Z,47.80
2022-12-19T11:49:03.710Z,52.65
2022-12-19T11:51:34.459Z,48.53
2022-12-19T11:54:07.086Z,56.35
2022-12-19T11:56:34.583Z,49.25
2022-12-19T11:59:03.461Z,54.03
2022-12-19T12:01:49.720Z,50.42
2022-12-19T12:04:27.070Z,49.13
2022-12-19T12:06:56.853Z,55.00
2022-12-19T12:14:06.242Z,49.20
2022-12-19T12:21:05.474Z,53.85
2022-12-19T12:27:19.993Z,54.65
2022-12-19T12:31:19.172Z,62.03
2022-12-19T12:31:32.252Z,44.30
2022-12-19T12:31:43.268Z,47.50
2022-12-19T12:31:54.110Z,49.95
2022-12-19T12:32:00.973Z,44.70
2022-12-19T12:35:22.464Z,44.60
2022-12-19T12:38:24.362Z,44.05
2022-12-19T12:40:59.394Z,43.25
2022-12-19T12:43:37.021Z,47.20
2022-12-19T12:46:05.190Z,45.83
2022-12-19T12:48:35.184Z,45.83
2022-12-19T12:51:02.649Z,43.25
2022-12-19T12:53:33.605Z,47.83
2022-12-19T12:56:03.017Z,50.67
2022-12-19T12:58:45.412Z,50.28
2022-12-19T13:01:15.940Z,52.17
2022-12-19T13:03:43.584Z,37.70
2022-12-19T13:06:25.183Z,42.67
2022-12-19T13:08:53.584Z,41.30
2022-12-19T13:11:54.629Z,37.88
2022-12-19T13:14:40.637Z,44.05
2022-12-19T13:17:08.470Z,42.60
2022-12-19T13:19:36.873Z,41.65
2022-12-19T13:22:15.592Z,44.75
2022-12-19T13:24:44.357Z,44.35
2022-12-19T13:27:26.569Z,31.65
2022-12-19T13:30:03.550Z,38.78
2022-12-19T13:32:33.795Z,36.45
2022-12-19T13:35:51.029Z,42.20
2022-12-19T13:39:55.641Z,38.58
2022-12-19T13:40:52.894Z,40.28
2022-12-19T13:43:39.869Z,32.03
2022-12-19T13:46:21.819Z,34.63
2022-12-19T13:48:51.013Z,38.47
2022-12-19T13:51:18.380Z,40.38
2022-12-19T13:53:45.959Z,36.05
2022-12-19T13:56:14.720Z,38.58
2022-12-19T13:58:47.657Z,43.15
2022-12-19T14:01:21.407Z,43.05
2022-12-19T14:03:50.124Z,41.97
2022-12-19T14:06:20.532Z,41.92
2022-12-19T14:09:25.096Z,46.35
2022-12-19T14:13:39.462Z,39.25
2022-12-19T14:14:43.818Z,40.45
2022-12-19T14:17:15.173Z,37.10
2022-12-19T14:19:43.724Z,45.88
2022-12-19T14:22:20.752Z,40.90
2022-12-19T14:25:27.127Z,35.15
2022-12-19T14:28:22.205Z,36.38
2022-12-19T14:30:35.955Z,37.40
2022-12-19T14:33:53.579Z,42.10
2022-12-19T14:36:12.225Z,39.38
2022-12-19T14:39:23.052Z,38.92
2022-12-19T14:42:00.626Z,42.88
2022-12-19T14:52:11.613Z,43.97
2022-12-19T14:53:51.974Z,42.20
2022-12-19T14:54:16.637Z,40.08
2022-12-19T14:54:40.195Z,34.40
2022-12-19T14:58:57.139Z,40.65
2022-12-19T15:01:25.908Z,33.75
2022-12-19T15:04:51.241Z,32.35
2022-12-19T15:07:06.900Z,26.42
2022-12-19T15:11:08.382Z,31.95
2022-12-19T15:14:47.323Z,32.33
2022-12-19T15:15:38.484Z,28.48
2022-12-19T15:18:17.714Z,25.27
2022-12-19T15:20:44.990Z,31.63
2022-12-19T15:23:19.824Z,25.60
2022-12-19T15:26:06.612Z,23.35
2022-12-19T15:28:38.930Z,26.67
2022-12-19T15:31:07.815Z,24.80
2022-12-19T15:33:35.203Z,19.33
2022-12-19T15:36:02.604Z,20.30
2022-12-19T15:38:31.236Z,21.25
2022-12-19T15:40:58.579Z,24.52
2022-12-19T15:44:02.050Z,21.83
2022-12-19T15:46:13.632Z,19.60
2022-12-19T15:48:43.533Z,20.13
2022-12-19T15:51:12.430Z,17.77
2022-12-19T15:53:41.619Z,20.73
2022-12-19T15:56:14.985Z,21.58
2022-12-19T15:58:42.282Z,23.33
2022-12-19T16:01:09.574Z,20.17
2022-12-19T16:03:37.176Z,15.55
2022-12-19T16:06:04.812Z,20.55
2022-12-19T16:08:32.197Z,22.35
2022-12-19T16:11:02.224Z,20.63
2022-12-19T16:13:30.692Z,21.20
2022-12-19T16:15:58.913Z,19.15
2022-12-19T16:18:26.610Z,20.23
2022-12-19T16:20:54.095Z,20.90
2022-12-19T16:23:22.221Z,22.45
2022-12-19T16:25:51.230Z,23.30
2022-12-19T16:28:21.191Z,21.48
2022-12-19T16:30:50.308Z,21.70
2022-12-19T16:33:20.035Z,23.42
2022-12-19T16:36:04.770Z,23.05
2022-12-19T16:38:33.852Z,22.65
2022-12-19T16:41:01.720Z,23.52
2022-12-19T16:43:31.738Z,23.45
2022-12-19T16:46:01.411Z,22.13
2022-12-19T16:48:30.503Z,23.02
2022-12-19T16:50:57.914Z,22.02
2022-12-19T16:53:25.280Z,23.13
2022-12-19T16:55:52.880Z,25.98
2022-12-19T16:58:21.238Z,26.48
2022-12-19T17:00:51.128Z,24.77
2022-12-19T17:03:26.671Z,23.30
2022-12-19T17:05:54.238Z,27.25
2022-12-19T17:08:21.592Z,23.98
2022-12-19T17:10:49.326Z,27.35
2022-12-19T17:13:18.411Z,31.33
2022-12-19T17:15:49.818Z,31.73
2022-12-19T17:18:25.802Z,29.10
2022-12-19T17:20:53.136Z,28.98
2022-12-19T17:23:21.818Z,26.83
2022-12-19T17:25:49.209Z,28.58
2022-12-19T17:28:17.102Z,26.58
2022-12-19T17:30:48.293Z,27.52
2022-12-19T17:33:16.622Z,26.77
2022-12-19T17:35:45.422Z,23.10
2022-12-19T17:38:14.045Z,33.90
2022-12-19T17:40:41.602Z,25.52
2022-12-19T17:43:08.954Z,25.98
2022-12-19T17:45:36.301Z,22.13
2022-12-19T17:48:05.323Z,26.13
2022-12-19T17:50:34.354Z,28.23
2022-12-19T17:53:03.066Z,24.67
2022-12-19T17:55:31.288Z,20.95
2022-12-19T17:57:59.216Z,23.67
2022-12-19T18:00:30.915Z,18.17
2022-12-19T18:03:00.326Z,15.45
2022-12-19T18:05:29.054Z,10.38
2022-12-19T18:07:56.388Z,8.23
2022-12-19T18:10:26.606Z,8.30
2022-12-19T18:12:54.322Z,10.52
2022-12-19T18:15:22.352Z,9.50
2022-12-19T18:17:51.118Z,8.48
2022-12-19T18:20:24.956Z,10.43
2022-12-19T18:22:57.630Z,8.80
2022-12-19T18:25:27.292Z,12.40
2022-12-19T18:27:55.310Z,11.73
2022-12-19T18:30:23.771Z,11.77
2022-12-19T18:32:52.544Z,11.43
2022-12-19T18:35:21.295Z,15.98
2022-12-19T18:37:49.862Z,16.88
2022-12-19T18:40:22.290Z,15.63
2022-12-19T18:42:54.760Z,19.83
2022-12-19T18:45:23.007Z,22.83
2022-12-19T18:47:57.891Z,19.02
2022-12-19T18:52:53.620Z,21.75
2022-12-19T18:55:22.295Z,24.08
2022-12-19T18:57:49.975Z,29.02
2022-12-19T19:00:19.639Z,26.38
2022-12-19T19:02:49.512Z,19.70
2022-12-19T19:05:18.497Z,24.50
2022-12-19T19:07:46.280Z,21.88
2022-12-19T19:10:21.383Z,23.83
2022-12-19T19:12:50.376Z,28.33
2022-12-19T19:15:20.292Z,25.02
2022-12-19T19:17:52.896Z,19.33
2022-12-19T19:20:20.250Z,24.77
2022-12-19T19:22:47.815Z,20.67
2022-12-19T19:25:15.170Z,28.08
2022-12-19T19:27:42.563Z,18.25
2022-12-19T19:30:11.069Z,13.63
2022-12-19T19:32:41.203Z,9.88
2022-12-19T19:35:09.824Z,8.95
2022-12-19T19:37:37.468Z,9.88
2022-12-19T19:40:05.273Z,7.55
2022-12-19T19:42:32.557Z,6.57
2022-12-19T19:44:59.899Z,13.27
2022-12-19T19:47:28.184Z,14.88
2022-12-19T19:49:57.262Z,23.73
2022-12-19T19:52:24.569Z,10.77
2022-12-19T19:54:51.958Z,8.23
2022-12-19T19:57:19.356Z,6.78
2022-12-19T19:59:46.723Z,5.15
2022-12-19T20:02:16.753Z,6.65
2022-12-19T20:04:45.582Z,10.20
2022-12-19T20:07:15.319Z,7.72
2022-12-19T20:09:42.645Z,4.95
2022-12-19T20:12:09.964Z,5.70
2022-12-19T20:14:37.311Z,4.68
2022-12-19T20:17:04.605Z,3.78
2022-12-19T20:19:31.917Z,6.25
2022-12-19T20:22:00.601Z,5.70
2022-12-19T20:24:29.413Z,5.25
2022-12-19T20:26:57.193Z,7.18
2022-12-19T20:29:24.629Z,3.78
2022-12-19T20:31:52.070Z,6.25
2022-12-19T20:34:20.714Z,4.75
2022-12-19T20:36:48.036Z,4.78
2022-12-19T20:39:16.147Z,4.35
2022-12-19T20:41:44.775Z,4.65
2022-12-19T20:44:12.138Z,5.68
2022-12-19T20:46:39.489Z,5.13
2022-12-19T20:49:06.832Z,8.57
2022-12-19T20:51:34.199Z,4.00
2022-12-19T20:54:01.554Z,3.25
2022-12-19T20:56:28.867Z,3.40
2022-12-19T20:58:57.591Z,5.18
2022-12-19T21:01:25.568Z,3.20
2022-12-19T21:03:53.478Z,2.72
2022-12-19T21:06:21.588Z,3.80
2022-12-19T21:08:50.351Z,4.97
2022-12-19T21:11:17.708Z,3.38
2022-12-19T21:13:45.325Z,4.68
2022-12-19T21:16:15.469Z,4.13
2022-12-19T21:18:44.694Z,2.67
2022-12-19T21:21:13.058Z,4.72
2022-12-19T21:23:40.602Z,5.05
2022-12-19T21:26:07.967Z,5.40
2022-12-19T21:28:35.303Z,3.33
2022-12-19T21:31:04.192Z,2.80
2022-12-19T21:33:33.026Z,3.22
2022-12-19T21:36:05.589Z,2.63
2022-12-19T21:38:33.043Z,4.05
2022-12-19T21:41:02.563Z,5.68
2022-12-19T21:43:30.975Z,5.00
2022-12-19T21:46:04.550Z,7.53
2022-12-19T21:48:37.065Z,5.72
2022-12-19T21:51:04.581Z,4.20
2022-12-19T21:53:31.932Z,4.28
2022-12-19T21:56:02.878Z,5.07
2022-12-19T21:58:30.163Z,6.22
2022-12-19T22:01:07.885Z,3.53
2022-12-19T22:03:37.425Z,6.07
2022-12-19T22:06:05.475Z,4.80
2022-12-19T22:08:32.835Z,3.60
2022-12-19T22:11:00.123Z,4.18
2022-12-19T22:13:27.427Z,4.80
2022-12-19T22:15:54.870Z,6.47
2022-12-19T22:18:22.281Z,8.05
2022-12-19T22:20:50.926Z,5.75
2022-12-19T22:23:18.205Z,3.13
2022-12-19T22:25:45.732Z,3.15
2022-12-19T22:28:13.299Z,5.88
2022-12-19T22:30:40.635Z,4.43
2022-12-19T22:33:07.981Z,2.78
2022-12-19T22:35:35.443Z,8.50
2022-12-19T22:38:04.180Z,2.15
2022-12-19T22:40:32.983Z,7.82
2022-12-19T22:43:00.329Z,5.18
2022-12-19T22:45:30.481Z,5.03
2022-12-19T22:47:57.873Z,3.42
2022-12-19T22:50:25.171Z,3.30
2022-12-19T22:52:52.529Z,2.65
2022-12-19T22:55:21.153Z,2.65
2022-12-19T22:57:48.440Z,3.47
2022-12-19T23:00:15.933Z,2.80
2022-12-19T23:02:43.874Z,1.83
2022-12-19T23:05:11.374Z,1.60
2022-12-19T23:07:38.813Z,2.90
2022-12-19T23:10:06.804Z,2.72
2022-12-19T23:12:35.661Z,3.85
2022-12-19T23:15:03.102Z,3.47
2022-12-19T23:17:30.692Z,3.80
2022-12-19T23:19:57.962Z,3.20
2022-12-19T23:22:25.312Z,3.75
2022-12-19T23:24:52.622Z,3.45
2022-12-19T23:27:19.935Z,2.22
2022-12-19T23:29:49.420Z,2.72
2022-12-19T23:32:16.827Z,3.20
2022-12-19T23:34:44.179Z,2.75
2022-12-19T23:37:12.446Z,2.50
2022-12-19T23:39:42.694Z,2.25
2022-12-19T23:42:10.064Z,1.95
2022-12-19T23:44:37.504Z,3.65
2022-12-19T23:47:06.242Z,2.33
2022-12-19T23:49:33.669Z,4.55
2022-12-19T23:52:01.053Z,2.97
2022-12-19T23:54:28.428Z,2.38
2022-12-19T23:56:55.713Z,2.70
2022-12-19T23:59:23.095Z,2.42
